sensor_id;sensor_type;location;lat;lon;timestamp;P1;durP1;ratioP1;P2;durP2;ratioP2
8094;SDS011;4090;49.270;8.696;2024-01-10T00:00:18;14.73;;;5.23;;
8094;SDS011;4090;49.270;8.696;2024-01-10T00:03:00;15.40;;;5.13;;
8094;SDS011;4090;49.270;8.696;2024-01-10T00:05:42;14.47;;;5.53;;
8094;SDS011;4090;49.270;8.696;2024-01-10T00:08:24;11.90;;;5.73;;
8094;SDS011;4090;49.270;8.696;2024-01-10T00:11:08;14.73;;;4.73;;
8094;SDS011;4090;49.270;8.696;2024-01-10T00:13:49;18.80;;;6.47;;
8094;SDS011;4090;49.270;8.696;2024-01-10T00:16:32;14.20;;;5.53;;
8094;SDS011;4090;49.270;8.696;2024-01-10T00:19:13;16.87;;;5.73;;
8094;SDS011;4090;49.270;8.696;2024-01-10T00:21:55;16.77;;;6.10;;
8094;SDS011;4090;49.270;8.696;2024-01-10T00:24:37;16.43;;;5.20;;
8094;SDS011;4090;49.270;8.696;2024-01-10T00:27:20;11.97;;;5.80;;
8094;SDS011;4090;49.270;8.696;2024-01-10T00:30:03;12.63;;;5.30;;
8094;SDS011;4090;49.270;8.696;2024-01-10T00:32:45;17.33;;;6.27;;
8094;SDS011;4090;49.270;8.696;2024-01-10T00:35:26;13.53;;;5.73;;
8094;SDS011;4090;49.270;8.696;2024-01-10T00:38:08;12.00;;;4.97;;
8094;SDS011;4090;49.270;8.696;2024-01-10T00:40:50;22.13;;;6.23;;
8094;SDS011;4090;49.270;8.696;2024-01-10T00:43:33;16.67;;;5.53;;
8094;SDS011;4090;49.270;8.696;2024-01-10T00:46:15;15.13;;;5.80;;
8094;SDS011;4090;49.270;8.696;2024-01-10T00:48:57;12.30;;;5.47;;
8094;SDS011;4090;49.270;8.696;2024-01-10T00:51:39;14.03;;;5.57;;
8094;SDS011;4090;49.270;8.696;2024-01-10T00:54:21;12.03;;;5.00;;
8094;SDS011;4090;49.270;8.696;2024-01-10T00:57:03;14.57;;;6.07;;
8094;SDS011;4090;49.270;8.696;2024-01-10T00:59:46;14.27;;;5.63;;
8094;SDS011;4090;49.270;8.696;2024-01-10T01:02:28;17.63;;;6.30;;
8094;SDS011;4090;49.270;8.696;2024-01-10T01:05:10;13.53;;;5.17;;
8094;SDS011;4090;49.270;8.696;2024-01-10T01:07:51;18.33;;;5.93;;
8094;SDS011;4090;49.270;8.696;2024-01-10T01:10:33;13.83;;;6.07;;
8094;SDS011;4090;49.270;8.696;2024-01-10T01:13:15;15.80;;;6.17;;
8094;SDS011;4090;49.270;8.696;2024-01-10T01:15:59;15.77;;;5.67;;
8094;SDS011;4090;49.270;8.696;2024-01-10T01:18:41;17.33;;;6.33;;
8094;SDS011;4090;49.270;8.696;2024-01-10T01:21:25;19.33;;;6.50;;
8094;SDS011;4090;49.270;8.696;2024-01-10T01:24:07;13.60;;;5.63;;
8094;SDS011;4090;49.270;8.696;2024-01-10T01:26:49;14.97;;;5.90;;
8094;SDS011;4090;49.270;8.696;2024-01-10T01:29:31;15.13;;;5.60;;
8094;SDS011;4090;49.270;8.696;2024-01-10T01:32:14;19.53;;;5.83;;
8094;SDS011;4090;49.270;8.696;2024-01-10T01:34:56;16.00;;;4.93;;
8094;SDS011;4090;49.270;8.696;2024-01-10T01:37:38;12.53;;;5.73;;
8094;SDS011;4090;49.270;8.696;2024-01-10T01:40:20;15.23;;;6.20;;
8094;SDS011;4090;49.270;8.696;2024-01-10T01:43:02;16.87;;;6.17;;
8094;SDS011;4090;49.270;8.696;2024-01-10T01:46:00;19.73;;;6.43;;
8094;SDS011;4090;49.270;8.696;2024-01-10T01:48:45;19.47;;;6.23;;
8094;SDS011;4090;49.270;8.696;2024-01-10T01:51:27;19.97;;;6.50;;
8094;SDS011;4090;49.270;8.696;2024-01-10T01:54:10;12.93;;;6.13;;
8094;SDS011;4090;49.270;8.696;2024-01-10T01:56:52;14.60;;;5.47;;
8094;SDS011;4090;49.270;8.696;2024-01-10T01:59:34;12.30;;;5.17;;
8094;SDS011;4090;49.270;8.696;2024-01-10T02:02:16;16.87;;;6.07;;
8094;SDS011;4090;49.270;8.696;2024-01-10T02:05:00;19.20;;;6.33;;
8094;SDS011;4090;49.270;8.696;2024-01-10T02:07:42;18.97;;;5.27;;
8094;SDS011;4090;49.270;8.696;2024-01-10T02:10:24;18.77;;;5.93;;
8094;SDS011;4090;49.270;8.696;2024-01-10T02:13:07;20.17;;;6.23;;
8094;SDS011;4090;49.270;8.696;2024-01-10T02:15:51;13.77;;;5.37;;
8094;SDS011;4090;49.270;8.696;2024-01-10T02:18:34;16.10;;;6.27;;
8094;SDS011;4090;49.270;8.696;2024-01-10T02:21:17;13.87;;;5.07;;
8094;SDS011;4090;49.270;8.696;2024-01-10T02:24:01;18.37;;;6.07;;
8094;SDS011;4090;49.270;8.696;2024-01-10T02:26:45;19.10;;;6.40;;
8094;SDS011;4090;49.270;8.696;2024-01-10T02:29:27;18.20;;;6.57;;
8094;SDS011;4090;49.270;8.696;2024-01-10T02:32:09;14.07;;;5.83;;
8094;SDS011;4090;49.270;8.696;2024-01-10T02:34:51;19.07;;;6.23;;
8094;SDS011;4090;49.270;8.696;2024-01-10T02:37:33;12.07;;;5.57;;
8094;SDS011;4090;49.270;8.696;2024-01-10T02:40:15;17.70;;;6.80;;
8094;SDS011;4090;49.270;8.696;2024-01-10T02:42:58;15.70;;;5.63;;
8094;SDS011;4090;49.270;8.696;2024-01-10T02:45:40;17.70;;;6.00;;
8094;SDS011;4090;49.270;8.696;2024-01-10T02:48:22;19.77;;;6.63;;
8094;SDS011;4090;49.270;8.696;2024-01-10T02:51:04;14.37;;;5.73;;
8094;SDS011;4090;49.270;8.696;2024-01-10T02:53:46;17.17;;;5.80;;
8094;SDS011;4090;49.270;8.696;2024-01-10T02:56:28;17.73;;;6.73;;
8094;SDS011;4090;49.270;8.696;2024-01-10T02:59:11;13.57;;;5.83;;
8094;SDS011;4090;49.270;8.696;2024-01-10T03:01:53;18.00;;;6.33;;
8094;SDS011;4090;49.270;8.696;2024-01-10T03:04:35;16.17;;;5.43;;
8094;SDS011;4090;49.270;8.696;2024-01-10T03:07:17;15.77;;;5.90;;
8094;SDS011;4090;49.270;8.696;2024-01-10T03:09:59;13.60;;;5.77;;
8094;SDS011;4090;49.270;8.696;2024-01-10T03:12:40;13.27;;;5.70;;
8094;SDS011;4090;49.270;8.696;2024-01-10T03:15:24;12.87;;;5.23;;
8094;SDS011;4090;49.270;8.696;2024-01-10T03:18:06;13.57;;;5.40;;
8094;SDS011;4090;49.270;8.696;2024-01-10T03:20:47;13.70;;;6.43;;
8094;SDS011;4090;49.270;8.696;2024-01-10T03:23:29;16.97;;;5.30;;
8094;SDS011;4090;49.270;8.696;2024-01-10T03:26:11;12.77;;;5.77;;
8094;SDS011;4090;49.270;8.696;2024-01-10T03:28:53;16.00;;;6.43;;
8094;SDS011;4090;49.270;8.696;2024-01-10T03:31:37;17.53;;;5.97;;
8094;SDS011;4090;49.270;8.696;2024-01-10T03:34:19;13.80;;;5.77;;
8094;SDS011;4090;49.270;8.696;2024-01-10T03:37:00;18.70;;;5.73;;
8094;SDS011;4090;49.270;8.696;2024-01-10T03:39:42;15.17;;;5.67;;
8094;SDS011;4090;49.270;8.696;2024-01-10T03:42:25;19.73;;;6.50;;
8094;SDS011;4090;49.270;8.696;2024-01-10T03:45:07;18.47;;;6.33;;
8094;SDS011;4090;49.270;8.696;2024-01-10T03:47:50;14.67;;;5.67;;
8094;SDS011;4090;49.270;8.696;2024-01-10T03:50:32;14.97;;;5.97;;
8094;SDS011;4090;49.270;8.696;2024-01-10T03:53:14;14.63;;;5.73;;
8094;SDS011;4090;49.270;8.696;2024-01-10T03:55:56;21.23;;;6.43;;
8094;SDS011;4090;49.270;8.696;2024-01-10T03:58:37;22.63;;;7.10;;
8094;SDS011;4090;49.270;8.696;2024-01-10T04:01:21;17.77;;;5.53;;
8094;SDS011;4090;49.270;8.696;2024-01-10T04:04:05;18.43;;;6.17;;
8094;SDS011;4090;49.270;8.696;2024-01-10T04:06:46;17.50;;;6.63;;
8094;SDS011;4090;49.270;8.696;2024-01-10T04:09:28;17.60;;;6.27;;
8094;SDS011;4090;49.270;8.696;2024-01-10T04:12:10;19.03;;;6.37;;
8094;SDS011;4090;49.270;8.696;2024-01-10T04:14:52;13.40;;;6.57;;
8094;SDS011;4090;49.270;8.696;2024-01-10T04:17:34;25.03;;;6.70;;
8094;SDS011;4090;49.270;8.696;2024-01-10T04:20:17;14.40;;;5.43;;
8094;SDS011;4090;49.270;8.696;2024-01-10T04:22:59;20.80;;;7.00;;
8094;SDS011;4090;49.270;8.696;2024-01-10T04:25:41;14.37;;;5.77;;
8094;SDS011;4090;49.270;8.696;2024-01-10T04:28:23;14.43;;;6.37;;
8094;SDS011;4090;49.270;8.696;2024-01-10T04:31:04;18.97;;;6.93;;
8094;SDS011;4090;49.270;8.696;2024-01-10T04:33:46;14.77;;;5.90;;
8094;SDS011;4090;49.270;8.696;2024-01-10T04:36:29;21.33;;;7.03;;
8094;SDS011;4090;49.270;8.696;2024-01-10T04:39:11;18.20;;;7.17;;
8094;SDS011;4090;49.270;8.696;2024-01-10T04:41:53;17.73;;;6.20;;
8094;SDS011;4090;49.270;8.696;2024-01-10T04:44:35;16.03;;;6.73;;
8094;SDS011;4090;49.270;8.696;2024-01-10T04:47:17;16.97;;;5.70;;
8094;SDS011;4090;49.270;8.696;2024-01-10T04:49:59;16.20;;;5.93;;
8094;SDS011;4090;49.270;8.696;2024-01-10T04:52:43;15.77;;;6.33;;
8094;SDS011;4090;49.270;8.696;2024-01-10T04:55:24;19.97;;;6.93;;
8094;SDS011;4090;49.270;8.696;2024-01-10T04:58:07;14.17;;;6.63;;
8094;SDS011;4090;49.270;8.696;2024-01-10T05:00:49;17.87;;;6.40;;
8094;SDS011;4090;49.270;8.696;2024-01-10T05:03:31;12.13;;;6.10;;
8094;SDS011;4090;49.270;8.696;2024-01-10T05:06:13;18.20;;;6.07;;
8094;SDS011;4090;49.270;8.696;2024-01-10T05:08:56;15.40;;;7.17;;
8094;SDS011;4090;49.270;8.696;2024-01-10T05:11:38;14.40;;;6.70;;
8094;SDS011;4090;49.270;8.696;2024-01-10T05:14:20;23.57;;;6.77;;
8094;SDS011;4090;49.270;8.696;2024-01-10T05:17:02;21.07;;;6.30;;
8094;SDS011;4090;49.270;8.696;2024-01-10T05:19:44;20.03;;;7.00;;
8094;SDS011;4090;49.270;8.696;2024-01-10T05:22:26;16.60;;;7.03;;
8094;SDS011;4090;49.270;8.696;2024-01-10T05:25:09;18.47;;;7.23;;
8094;SDS011;4090;49.270;8.696;2024-01-10T05:27:51;16.03;;;6.77;;
8094;SDS011;4090;49.270;8.696;2024-01-10T05:30:33;16.27;;;6.70;;
8094;SDS011;4090;49.270;8.696;2024-01-10T05:33:15;21.37;;;6.47;;
8094;SDS011;4090;49.270;8.696;2024-01-10T05:35:57;23.10;;;7.80;;
8094;SDS011;4090;49.270;8.696;2024-01-10T05:38:39;18.37;;;6.60;;
8094;SDS011;4090;49.270;8.696;2024-01-10T05:41:22;20.63;;;6.60;;
8094;SDS011;4090;49.270;8.696;2024-01-10T05:44:05;18.57;;;7.27;;
8094;SDS011;4090;49.270;8.696;2024-01-10T05:46:47;19.47;;;7.10;;
8094;SDS011;4090;49.270;8.696;2024-01-10T05:49:28;17.63;;;7.30;;
8094;SDS011;4090;49.270;8.696;2024-01-10T05:52:10;16.77;;;6.73;;
8094;SDS011;4090;49.270;8.696;2024-01-10T05:54:52;18.40;;;7.20;;
8094;SDS011;4090;49.270;8.696;2024-01-10T05:57:36;18.13;;;7.67;;
8094;SDS011;4090;49.270;8.696;2024-01-10T06:00:18;16.83;;;7.37;;
8094;SDS011;4090;49.270;8.696;2024-01-10T06:03:01;19.70;;;6.73;;
8094;SDS011;4090;49.270;8.696;2024-01-10T06:05:43;16.30;;;6.83;;
8094;SDS011;4090;49.270;8.696;2024-01-10T06:08:25;16.00;;;6.63;;
8094;SDS011;4090;49.270;8.696;2024-01-10T06:11:08;20.40;;;7.27;;
8094;SDS011;4090;49.270;8.696;2024-01-10T06:13:52;18.93;;;7.57;;
8094;SDS011;4090;49.270;8.696;2024-01-10T06:16:33;26.50;;;7.27;;
8094;SDS011;4090;49.270;8.696;2024-01-10T06:19:15;15.93;;;6.57;;
8094;SDS011;4090;49.270;8.696;2024-01-10T06:21:58;20.43;;;7.33;;
8094;SDS011;4090;49.270;8.696;2024-01-10T06:24:40;21.07;;;7.20;;
8094;SDS011;4090;49.270;8.696;2024-01-10T06:27:22;22.03;;;7.13;;
8094;SDS011;4090;49.270;8.696;2024-01-10T06:30:06;16.43;;;6.33;;
8094;SDS011;4090;49.270;8.696;2024-01-10T06:32:49;18.30;;;6.77;;
8094;SDS011;4090;49.270;8.696;2024-01-10T06:35:31;16.93;;;6.60;;
8094;SDS011;4090;49.270;8.696;2024-01-10T06:38:14;19.07;;;6.30;;
8094;SDS011;4090;49.270;8.696;2024-01-10T06:40:57;18.50;;;6.87;;
8094;SDS011;4090;49.270;8.696;2024-01-10T06:43:38;15.67;;;6.77;;
8094;SDS011;4090;49.270;8.696;2024-01-10T06:46:22;20.00;;;7.03;;
8094;SDS011;4090;49.270;8.696;2024-01-10T06:49:04;15.83;;;6.47;;
8094;SDS011;4090;49.270;8.696;2024-01-10T06:51:47;16.93;;;6.67;;
8094;SDS011;4090;49.270;8.696;2024-01-10T06:54:29;19.87;;;6.63;;
8094;SDS011;4090;49.270;8.696;2024-01-10T06:57:11;18.87;;;6.77;;
8094;SDS011;4090;49.270;8.696;2024-01-10T06:59:52;16.07;;;7.43;;
8094;SDS011;4090;49.270;8.696;2024-01-10T07:02:36;23.43;;;7.60;;
8094;SDS011;4090;49.270;8.696;2024-01-10T07:05:18;17.40;;;6.80;;
8094;SDS011;4090;49.270;8.696;2024-01-10T07:08:00;17.80;;;5.97;;
8094;SDS011;4090;49.270;8.696;2024-01-10T07:10:43;16.97;;;6.27;;
8094;SDS011;4090;49.270;8.696;2024-01-10T07:13:25;19.37;;;6.93;;
8094;SDS011;4090;49.270;8.696;2024-01-10T07:16:07;16.63;;;6.70;;
8094;SDS011;4090;49.270;8.696;2024-01-10T07:18:50;17.57;;;7.17;;
8094;SDS011;4090;49.270;8.696;2024-01-10T07:21:32;20.80;;;7.10;;
8094;SDS011;4090;49.270;8.696;2024-01-10T07:24:14;14.57;;;6.43;;
8094;SDS011;4090;49.270;8.696;2024-01-10T07:26:56;17.83;;;7.00;;
8094;SDS011;4090;49.270;8.696;2024-01-10T07:29:39;21.13;;;7.10;;
8094;SDS011;4090;49.270;8.696;2024-01-10T07:32:21;22.27;;;8.03;;
8094;SDS011;4090;49.270;8.696;2024-01-10T07:35:04;15.50;;;6.30;;
8094;SDS011;4090;49.270;8.696;2024-01-10T07:37:49;18.63;;;7.63;;
8094;SDS011;4090;49.270;8.696;2024-01-10T07:40:31;16.30;;;6.53;;
8094;SDS011;4090;49.270;8.696;2024-01-10T07:43:13;21.50;;;7.17;;
8094;SDS011;4090;49.270;8.696;2024-01-10T07:45:55;22.80;;;7.33;;
8094;SDS011;4090;49.270;8.696;2024-01-10T07:48:37;20.47;;;6.77;;
8094;SDS011;4090;49.270;8.696;2024-01-10T07:51:20;18.43;;;7.40;;
8094;SDS011;4090;49.270;8.696;2024-01-10T07:54:02;16.50;;;7.10;;
8094;SDS011;4090;49.270;8.696;2024-01-10T07:56:44;17.90;;;7.33;;
8094;SDS011;4090;49.270;8.696;2024-01-10T07:59:25;18.20;;;8.03;;
8094;SDS011;4090;49.270;8.696;2024-01-10T08:02:07;20.40;;;8.50;;
8094;SDS011;4090;49.270;8.696;2024-01-10T08:04:51;22.33;;;7.37;;
8094;SDS011;4090;49.270;8.696;2024-01-10T08:07:35;22.37;;;7.90;;
8094;SDS011;4090;49.270;8.696;2024-01-10T08:10:18;23.00;;;7.77;;
8094;SDS011;4090;49.270;8.696;2024-01-10T08:13:00;21.63;;;7.57;;
8094;SDS011;4090;49.270;8.696;2024-01-10T08:15:42;20.30;;;7.43;;
8094;SDS011;4090;49.270;8.696;2024-01-10T08:18:24;19.90;;;7.70;;
8094;SDS011;4090;49.270;8.696;2024-01-10T08:21:06;21.20;;;7.23;;
8094;SDS011;4090;49.270;8.696;2024-01-10T08:23:49;20.93;;;7.13;;
8094;SDS011;4090;49.270;8.696;2024-01-10T08:26:30;18.33;;;6.53;;
8094;SDS011;4090;49.270;8.696;2024-01-10T08:29:12;18.70;;;6.90;;
8094;SDS011;4090;49.270;8.696;2024-01-10T08:31:55;19.20;;;7.60;;
8094;SDS011;4090;49.270;8.696;2024-01-10T08:34:37;15.60;;;6.50;;
8094;SDS011;4090;49.270;8.696;2024-01-10T08:37:19;14.97;;;7.00;;
8094;SDS011;4090;49.270;8.696;2024-01-10T08:40:03;18.93;;;7.63;;
8094;SDS011;4090;49.270;8.696;2024-01-10T08:42:50;17.63;;;6.87;;
8094;SDS011;4090;49.270;8.696;2024-01-10T08:45:32;16.00;;;6.93;;
8094;SDS011;4090;49.270;8.696;2024-01-10T08:48:14;21.87;;;6.73;;
8094;SDS011;4090;49.270;8.696;2024-01-10T08:50:56;18.87;;;7.63;;
8094;SDS011;4090;49.270;8.696;2024-01-10T08:53:37;21.43;;;7.43;;
8094;SDS011;4090;49.270;8.696;2024-01-10T08:56:21;19.70;;;6.87;;
8094;SDS011;4090;49.270;8.696;2024-01-10T08:59:04;16.10;;;6.93;;
8094;SDS011;4090;49.270;8.696;2024-01-10T09:01:46;17.33;;;6.37;;
8094;SDS011;4090;49.270;8.696;2024-01-10T09:04:28;22.17;;;7.23;;
8094;SDS011;4090;49.270;8.696;2024-01-10T09:07:09;17.70;;;7.53;;
8094;SDS011;4090;49.270;8.696;2024-01-10T09:09:51;15.50;;;6.43;;
8094;SDS011;4090;49.270;8.696;2024-01-10T09:12:34;19.13;;;6.23;;
8094;SDS011;4090;49.270;8.696;2024-01-10T09:15:16;22.47;;;7.07;;
8094;SDS011;4090;49.270;8.696;2024-01-10T09:17:58;24.10;;;7.50;;
8094;SDS011;4090;49.270;8.696;2024-01-10T09:20:40;19.30;;;6.87;;
8094;SDS011;4090;49.270;8.696;2024-01-10T09:23:22;19.20;;;7.37;;
8094;SDS011;4090;49.270;8.696;2024-01-10T09:26:04;17.87;;;7.43;;
8094;SDS011;4090;49.270;8.696;2024-01-10T09:28:47;23.07;;;6.70;;
8094;SDS011;4090;49.270;8.696;2024-01-10T09:31:29;19.87;;;7.53;;
8094;SDS011;4090;49.270;8.696;2024-01-10T09:34:11;21.03;;;7.37;;
8094;SDS011;4090;49.270;8.696;2024-01-10T09:36:53;18.50;;;7.03;;
8094;SDS011;4090;49.270;8.696;2024-01-10T09:39:35;20.37;;;6.83;;
8094;SDS011;4090;49.270;8.696;2024-01-10T09:42:16;24.63;;;7.57;;
8094;SDS011;4090;49.270;8.696;2024-01-10T09:45:00;18.33;;;7.27;;
8094;SDS011;4090;49.270;8.696;2024-01-10T09:47:43;24.87;;;7.83;;
8094;SDS011;4090;49.270;8.696;2024-01-10T09:50:29;20.87;;;6.97;;
8094;SDS011;4090;49.270;8.696;2024-01-10T09:53:12;20.97;;;8.00;;
8094;SDS011;4090;49.270;8.696;2024-01-10T09:56:05;22.03;;;7.20;;
8094;SDS011;4090;49.270;8.696;2024-01-10T09:58:48;17.13;;;7.20;;
8094;SDS011;4090;49.270;8.696;2024-01-10T10:01:33;21.23;;;8.23;;
8094;SDS011;4090;49.270;8.696;2024-01-10T10:04:15;18.87;;;7.13;;
8094;SDS011;4090;49.270;8.696;2024-01-10T10:06:59;16.30;;;6.83;;
8094;SDS011;4090;49.270;8.696;2024-01-10T10:09:41;23.00;;;7.93;;
8094;SDS011;4090;49.270;8.696;2024-01-10T10:12:26;21.70;;;8.32;;
8094;SDS011;4090;49.270;8.696;2024-01-10T10:15:23;21.37;;;8.43;;
8094;SDS011;4090;49.270;8.696;2024-01-10T10:18:13;15.68;;;7.03;;
8094;SDS011;4090;49.270;8.696;2024-01-10T10:21:06;18.90;;;7.97;;
8094;SDS011;4090;49.270;8.696;2024-01-10T10:23:57;18.02;;;8.35;;
8094;SDS011;4090;49.270;8.696;2024-01-10T10:26:39;17.75;;;7.13;;
8094;SDS011;4090;49.270;8.696;2024-01-10T10:29:22;18.40;;;7.43;;
8094;SDS011;4090;49.270;8.696;2024-01-10T10:32:04;18.52;;;7.80;;
8094;SDS011;4090;49.270;8.696;2024-01-10T10:34:50;18.35;;;7.22;;
8094;SDS011;4090;49.270;8.696;2024-01-10T10:37:31;18.10;;;7.78;;
8094;SDS011;4090;49.270;8.696;2024-01-10T10:40:13;18.60;;;6.97;;
8094;SDS011;4090;49.270;8.696;2024-01-10T10:42:56;20.63;;;7.45;;
8094;SDS011;4090;49.270;8.696;2024-01-10T10:45:38;21.40;;;8.38;;
8094;SDS011;4090;49.270;8.696;2024-01-10T10:48:21;20.52;;;8.73;;
8094;SDS011;4090;49.270;8.696;2024-01-10T10:51:05;22.65;;;7.78;;
8094;SDS011;4090;49.270;8.696;2024-01-10T10:53:49;21.45;;;8.10;;
8094;SDS011;4090;49.270;8.696;2024-01-10T10:56:32;18.65;;;7.95;;
8094;SDS011;4090;49.270;8.696;2024-01-10T10:59:15;22.38;;;8.52;;
8094;SDS011;4090;49.270;8.696;2024-01-10T11:01:58;21.35;;;8.30;;
8094;SDS011;4090;49.270;8.696;2024-01-10T11:04:40;20.60;;;7.60;;
8094;SDS011;4090;49.270;8.696;2024-01-10T11:07:24;24.30;;;9.20;;
8094;SDS011;4090;49.270;8.696;2024-01-10T11:10:08;21.77;;;8.48;;
8094;SDS011;4090;49.270;8.696;2024-01-10T11:12:55;29.63;;;10.55;;
8094;SDS011;4090;49.270;8.696;2024-01-10T11:15:58;18.23;;;7.55;;
8094;SDS011;4090;49.270;8.696;2024-01-10T11:19:17;23.48;;;9.18;;
8094;SDS011;4090;49.270;8.696;2024-01-10T11:22:16;19.92;;;9.15;;
8094;SDS011;4090;49.270;8.696;2024-01-10T11:25:10;18.27;;;8.52;;
8094;SDS011;4090;49.270;8.696;2024-01-10T11:27:53;17.73;;;7.72;;
8094;SDS011;4090;49.270;8.696;2024-01-10T11:30:36;18.00;;;7.70;;
8094;SDS011;4090;49.270;8.696;2024-01-10T11:33:30;19.80;;;8.10;;
8094;SDS011;4090;49.270;8.696;2024-01-10T11:36:13;22.02;;;8.98;;
8094;SDS011;4090;49.270;8.696;2024-01-10T11:38:58;30.23;;;9.30;;
8094;SDS011;4090;49.270;8.696;2024-01-10T11:41:42;20.02;;;7.70;;
8094;SDS011;4090;49.270;8.696;2024-01-10T11:44:27;23.83;;;7.82;;
8094;SDS011;4090;49.270;8.696;2024-01-10T11:47:10;21.55;;;8.38;;
8094;SDS011;4090;49.270;8.696;2024-01-10T11:49:55;21.88;;;7.93;;
8094;SDS011;4090;49.270;8.696;2024-01-10T11:52:38;21.67;;;8.73;;
8094;SDS011;4090;49.270;8.696;2024-01-10T11:58:32;21.95;;;8.65;;
8094;SDS011;4090;49.270;8.696;2024-01-10T12:01:13;19.88;;;8.15;;
8094;SDS011;4090;49.270;8.696;2024-01-10T12:03:56;19.02;;;8.15;;
8094;SDS011;4090;49.270;8.696;2024-01-10T12:06:40;20.17;;;8.18;;
8094;SDS011;4090;49.270;8.696;2024-01-10T12:09:22;26.20;;;8.65;;
8094;SDS011;4090;49.270;8.696;2024-01-10T12:12:06;21.00;;;8.60;;
8094;SDS011;4090;49.270;8.696;2024-01-10T12:14:48;20.75;;;7.85;;
8094;SDS011;4090;49.270;8.696;2024-01-10T12:17:32;19.00;;;7.97;;
8094;SDS011;4090;49.270;8.696;2024-01-10T12:20:14;22.25;;;8.15;;
8094;SDS011;4090;49.270;8.696;2024-01-10T12:22:57;26.20;;;9.18;;
8094;SDS011;4090;49.270;8.696;2024-01-10T12:25:39;17.42;;;8.20;;
8094;SDS011;4090;49.270;8.696;2024-01-10T12:28:22;23.55;;;8.90;;
8094;SDS011;4090;49.270;8.696;2024-01-10T12:31:05;20.80;;;8.95;;
8094;SDS011;4090;49.270;8.696;2024-01-10T12:33:48;24.05;;;9.57;;
8094;SDS011;4090;49.270;8.696;2024-01-10T12:36:30;25.92;;;10.10;;
8094;SDS011;4090;49.270;8.696;2024-01-10T12:39:12;24.40;;;11.55;;
8094;SDS011;4090;49.270;8.696;2024-01-10T12:41:54;24.17;;;11.00;;
8094;SDS011;4090;49.270;8.696;2024-01-10T12:44:38;29.58;;;12.68;;
8094;SDS011;4090;49.270;8.696;2024-01-10T12:47:25;21.20;;;10.10;;
8094;SDS011;4090;49.270;8.696;2024-01-10T12:50:07;20.90;;;9.25;;
8094;SDS011;4090;49.270;8.696;2024-01-10T12:52:50;21.33;;;9.15;;
8094;SDS011;4090;49.270;8.696;2024-01-10T12:55:32;18.80;;;8.77;;
8094;SDS011;4090;49.270;8.696;2024-01-10T12:58:14;21.90;;;8.75;;
8094;SDS011;4090;49.270;8.696;2024-01-10T13:00:57;21.20;;;8.32;;
8094;SDS011;4090;49.270;8.696;2024-01-10T13:03:39;24.80;;;9.40;;
8094;SDS011;4090;49.270;8.696;2024-01-10T13:06:21;27.25;;;9.55;;
8094;SDS011;4090;49.270;8.696;2024-01-10T13:09:04;27.52;;;8.85;;
8094;SDS011;4090;49.270;8.696;2024-01-10T13:11:46;19.48;;;8.98;;
8094;SDS011;4090;49.270;8.696;2024-01-10T13:14:28;20.45;;;8.27;;
8094;SDS011;4090;49.270;8.696;2024-01-10T13:17:13;22.88;;;8.60;;
8094;SDS011;4090;49.270;8.696;2024-01-10T13:19:54;16.42;;;7.47;;
8094;SDS011;4090;49.270;8.696;2024-01-10T13:22:38;25.10;;;9.07;;
8094;SDS011;4090;49.270;8.696;2024-01-10T13:25:20;20.67;;;9.35;;
8094;SDS011;4090;49.270;8.696;2024-01-10T13:28:03;23.60;;;8.80;;
8094;SDS011;4090;49.270;8.696;2024-01-10T13:30:45;21.42;;;9.48;;
8094;SDS011;4090;49.270;8.696;2024-01-10T13:33:28;24.92;;;9.45;;
8094;SDS011;4090;49.270;8.696;2024-01-10T13:36:10;22.40;;;8.93;;
8094;SDS011;4090;49.270;8.696;2024-01-10T13:38:52;28.63;;;10.35;;
8094;SDS011;4090;49.270;8.696;2024-01-10T13:41:34;19.83;;;9.50;;
8094;SDS011;4090;49.270;8.696;2024-01-10T13:44:16;18.60;;;8.82;;
8094;SDS011;4090;49.270;8.696;2024-01-10T13:46:58;29.27;;;11.18;;
8094;SDS011;4090;49.270;8.696;2024-01-10T13:49:41;25.00;;;10.30;;
8094;SDS011;4090;49.270;8.696;2024-01-10T13:52:23;23.95;;;10.90;;
8094;SDS011;4090;49.270;8.696;2024-01-10T13:55:05;20.80;;;9.68;;
8094;SDS011;4090;49.270;8.696;2024-01-10T13:57:48;24.38;;;9.57;;
8094;SDS011;4090;49.270;8.696;2024-01-10T14:00:30;25.05;;;8.90;;
8094;SDS011;4090;49.270;8.696;2024-01-10T14:03:12;20.00;;;8.32;;
8094;SDS011;4090;49.270;8.696;2024-01-10T14:05:55;19.90;;;8.50;;
8094;SDS011;4090;49.270;8.696;2024-01-10T14:08:37;25.95;;;9.95;;
8094;SDS011;4090;49.270;8.696;2024-01-10T14:11:21;22.02;;;9.15;;
8094;SDS011;4090;49.270;8.696;2024-01-10T14:14:04;27.35;;;8.65;;
8094;SDS011;4090;49.270;8.696;2024-01-10T14:16:46;20.60;;;8.55;;
8094;SDS011;4090;49.270;8.696;2024-01-10T14:19:27;21.98;;;8.77;;
8094;SDS011;4090;49.270;8.696;2024-01-10T14:22:11;22.05;;;9.15;;
8094;SDS011;4090;49.270;8.696;2024-01-10T14:24:52;23.08;;;8.50;;
8094;SDS011;4090;49.270;8.696;2024-01-10T14:27:35;19.85;;;8.88;;
8094;SDS011;4090;49.270;8.696;2024-01-10T14:30:18;18.90;;;8.68;;
8094;SDS011;4090;49.270;8.696;2024-01-10T14:33:00;23.40;;;9.85;;
8094;SDS011;4090;49.270;8.696;2024-01-10T14:35:42;25.80;;;9.95;;
8094;SDS011;4090;49.270;8.696;2024-01-10T14:38:26;24.08;;;9.07;;
8094;SDS011;4090;49.270;8.696;2024-01-10T14:41:08;24.02;;;9.27;;
8094;SDS011;4090;49.270;8.696;2024-01-10T14:43:50;23.48;;;10.23;;
8094;SDS011;4090;49.270;8.696;2024-01-10T14:46:31;27.70;;;10.77;;
8094;SDS011;4090;49.270;8.696;2024-01-10T14:49:13;18.67;;;8.50;;
8094;SDS011;4090;49.270;8.696;2024-01-10T14:51:55;28.13;;;10.38;;
8094;SDS011;4090;49.270;8.696;2024-01-10T14:54:38;28.92;;;9.55;;
8094;SDS011;4090;49.270;8.696;2024-01-10T14:57:20;24.67;;;9.90;;
8094;SDS011;4090;49.270;8.696;2024-01-10T15:00:03;22.38;;;9.10;;
8094;SDS011;4090;49.270;8.696;2024-01-10T15:02:46;28.23;;;10.50;;
8094;SDS011;4090;49.270;8.696;2024-01-10T15:05:28;23.77;;;9.32;;
8094;SDS011;4090;49.270;8.696;2024-01-10T15:08:10;22.33;;;10.27;;
8094;SDS011;4090;49.270;8.696;2024-01-10T15:10:53;25.08;;;10.15;;
8094;SDS011;4090;49.270;8.696;2024-01-10T15:13:35;19.52;;;8.75;;
8094;SDS011;4090;49.270;8.696;2024-01-10T15:16:17;21.08;;;9.88;;
8094;SDS011;4090;49.270;8.696;2024-01-10T15:19:00;30.13;;;10.30;;
8094;SDS011;4090;49.270;8.696;2024-01-10T15:21:42;27.67;;;9.93;;
8094;SDS011;4090;49.270;8.696;2024-01-10T15:24:24;26.30;;;10.90;;
8094;SDS011;4090;49.270;8.696;2024-01-10T15:27:07;28.30;;;10.05;;
8094;SDS011;4090;49.270;8.696;2024-01-10T15:29:50;22.85;;;9.55;;
8094;SDS011;4090;49.270;8.696;2024-01-10T15:32:32;22.52;;;9.05;;
8094;SDS011;4090;49.270;8.696;2024-01-10T15:35:14;26.73;;;10.65;;
8094;SDS011;4090;49.270;8.696;2024-01-10T15:37:56;21.73;;;9.27;;
8094;SDS011;4090;49.270;8.696;2024-01-10T15:40:38;24.10;;;10.00;;
8094;SDS011;4090;49.270;8.696;2024-01-10T15:43:22;26.00;;;9.77;;
8094;SDS011;4090;49.270;8.696;2024-01-10T15:46:04;23.60;;;9.60;;
8094;SDS011;4090;49.270;8.696;2024-01-10T15:48:46;22.75;;;8.73;;
8094;SDS011;4090;49.270;8.696;2024-01-10T15:51:29;27.42;;;10.82;;
8094;SDS011;4090;49.270;8.696;2024-01-10T15:54:11;25.80;;;9.68;;
8094;SDS011;4090;49.270;8.696;2024-01-10T15:56:53;25.20;;;10.30;;
8094;SDS011;4090;49.270;8.696;2024-01-10T15:59:37;24.55;;;10.35;;
8094;SDS011;4090;49.270;8.696;2024-01-10T16:02:19;24.38;;;10.15;;
8094;SDS011;4090;49.270;8.696;2024-01-10T16:05:01;28.73;;;10.85;;
8094;SDS011;4090;49.270;8.696;2024-01-10T16:07:43;31.52;;;11.02;;
8094;SDS011;4090;49.270;8.696;2024-01-10T16:10:25;29.35;;;11.18;;
8094;SDS011;4090;49.270;8.696;2024-01-10T16:13:07;23.30;;;10.70;;
8094;SDS011;4090;49.270;8.696;2024-01-10T16:15:53;28.92;;;10.65;;
8094;SDS011;4090;49.270;8.696;2024-01-10T16:18:36;30.58;;;10.80;;
8094;SDS011;4090;49.270;8.696;2024-01-10T16:21:19;28.38;;;10.55;;
8094;SDS011;4090;49.270;8.696;2024-01-10T16:24:01;32.20;;;11.15;;
8094;SDS011;4090;49.270;8.696;2024-01-10T16:26:43;29.73;;;11.43;;
8094;SDS011;4090;49.270;8.696;2024-01-10T16:29:25;28.98;;;10.80;;
8094;SDS011;4090;49.270;8.696;2024-01-10T16:32:09;36.55;;;11.65;;
8094;SDS011;4090;49.270;8.696;2024-01-10T16:34:50;26.75;;;10.95;;
8094;SDS011;4090;49.270;8.696;2024-01-10T16:37:34;31.33;;;11.32;;